createdAt,value
2022-10-18T00:01:06.269Z,101273.59
2022-10-18T00:06:11.636Z,101270.69
2022-10-18T00:11:15.177Z,101272.84
2022-10-18T00:16:19.755Z,101275.31
2022-10-18T00:21:26.131Z,101268.63
2022-10-18T00:26:30.913Z,101267.53
2022-10-18T00:31:35.738Z,101267.63
2022-10-18T00:36:41.085Z,101262.19
2022-10-18T00:41:45.033Z,101260.63
2022-10-18T00:46:49.810Z,101259.09
2022-10-18T00:52:00.007Z,101251.22
2022-10-18T00:57:04.301Z,101260.25
2022-10-18T01:02:08.729Z,101256.25
2022-10-18T01:07:26.927Z,101253.75
2022-10-18T01:12:39.943Z,101255.56
2022-10-18T01:17:52.576Z,101264.94
2022-10-18T01:23:04.374Z,101258.97
2022-10-18T01:28:20.822Z,101252.47
2022-10-18T01:33:32.296Z,101255.91
2022-10-18T01:38:37.695Z,101260.63
2022-10-18T01:43:42.221Z,101263.84
2022-10-18T01:48:47.758Z,101260.84
2022-10-18T01:53:51.300Z,101264.91
2022-10-18T01:59:19.905Z,101269.13
2022-10-18T02:04:34.595Z,101262.47
2022-10-18T02:09:40.994Z,101269.69
2022-10-18T02:14:46.358Z,101287.75
2022-10-18T02:19:51.865Z,101289.56
2022-10-18T02:24:58.308Z,101295.50
2022-10-18T02:30:01.946Z,101296.81
2022-10-18T02:35:11.721Z,101310.44
2022-10-18T02:40:15.998Z,101318.28
2022-10-18T02:45:19.664Z,101323.34
2022-10-18T02:50:24.892Z,101313.06
2022-10-18T03:00:32.827Z,101308.97
2022-10-18T03:05:38.917Z,101305.22
2022-10-18T03:10:44.850Z,101311.06
2022-10-18T03:15:48.490Z,101304.88
2022-10-18T03:20:56.583Z,101310.88
2022-10-18T03:26:00.300Z,101308.38
2022-10-18T03:31:05.443Z,101311.94
2022-10-18T03:36:11.654Z,101314.00
2022-10-18T03:41:15.207Z,101311.13
2022-10-18T03:46:18.742Z,101312.81
2022-10-18T03:51:23.972Z,101318.72
2022-10-18T03:56:27.543Z,101312.22
2022-10-18T04:01:31.335Z,101306.84
2022-10-18T04:06:36.625Z,101315.53
2022-10-18T04:11:40.228Z,101319.22
2022-10-18T04:16:43.774Z,101319.44
2022-10-18T04:21:48.964Z,101331.84
2022-10-18T04:26:55.078Z,101330.44
2022-10-18T04:31:58.618Z,101334.50
2022-10-18T04:37:03.805Z,101334.66
2022-10-18T04:42:07.336Z,101344.84
2022-10-18T04:47:10.910Z,101348.56
2022-10-18T04:52:16.057Z,101358.59
2022-10-18T04:57:19.602Z,101365.97
2022-10-18T05:02:23.143Z,101357.59
2022-10-18T05:07:28.366Z,101355.91
2022-10-18T05:12:32.460Z,101365.28
2022-10-18T05:17:36.196Z,101362.69
2022-10-18T05:22:41.417Z,101357.41
2022-10-18T05:27:44.967Z,101366.31
2022-10-18T05:32:48.682Z,101361.72
2022-10-18T05:37:53.981Z,101363.84
2022-10-18T05:42:57.511Z,101361.47
2022-10-18T05:48:01.046Z,101361.91
2022-10-18T05:53:12.029Z,101378.72
2022-10-18T05:58:16.168Z,101378.25
2022-10-18T06:03:19.882Z,101369.53
2022-10-18T06:08:25.065Z,101380.16
2022-10-18T06:13:31.114Z,101383.16
2022-10-18T06:18:36.122Z,101383.28
2022-10-18T06:23:41.530Z,101382.47
2022-10-18T06:28:45.950Z,101386.72
2022-10-18T06:33:49.704Z,101378.97
2022-10-18T06:38:55.173Z,101387.28
2022-10-18T06:43:58.695Z,101377.91
2022-10-18T06:49:02.196Z,101379.47
2022-10-18T06:54:17.618Z,101377.81
2022-10-18T06:59:21.082Z,101385.06
2022-10-18T07:04:24.644Z,101398.41
2022-10-18T07:09:30.044Z,101391.41
2022-10-18T07:14:33.571Z,101398.59
2022-10-18T07:19:37.848Z,101391.69
2022-10-18T07:24:43.019Z,101393.44
2022-10-18T07:29:46.565Z,101397.69
2022-10-18T07:34:50.086Z,101393.53
2022-10-18T07:39:55.274Z,101401.00
2022-10-18T07:44:58.801Z,101405.75
2022-10-18T07:50:02.308Z,101406.75
2022-10-18T07:55:08.137Z,101411.16
2022-10-18T08:00:12.826Z,101407.66
2022-10-18T08:05:16.502Z,101417.22
2022-10-18T08:10:22.441Z,101413.16
2022-10-18T08:15:25.298Z,101411.44
2022-10-18T08:20:31.207Z,101420.13
2022-10-18T08:30:45.377Z,101430.13
2022-10-18T08:35:56.283Z,101422.19
2022-10-18T08:41:15.938Z,101416.16
2022-10-18T08:46:19.544Z,101420.63
2022-10-18T08:51:28.689Z,101414.31
2022-10-18T08:56:35.346Z,101419.97
2022-10-18T09:01:46.061Z,101420.31
2022-10-18T09:06:59.279Z,101424.53
2022-10-18T09:12:21.181Z,101416.94
2022-10-18T09:17:32.692Z,101415.97
2022-10-18T09:22:49.423Z,101415.22
2022-10-18T09:27:56.987Z,101422.31
2022-10-18T09:33:08.666Z,101424.09
2022-10-18T09:38:14.303Z,101413.59
2022-10-18T09:43:23.722Z,101422.31
2022-10-18T09:48:30.954Z,101417.84
2022-10-18T09:53:41.225Z,101415.50
2022-10-18T09:58:48.069Z,101418.16
2022-10-18T10:03:51.717Z,101415.50
2022-10-18T10:09:06.197Z,101420.78
2022-10-18T10:19:27.011Z,101408.91
2022-10-18T10:24:41.440Z,101408.88
2022-10-18T10:30:00.384Z,101397.66
2022-10-18T10:35:33.859Z,101407.34
2022-10-18T10:40:49.616Z,101410.81
2022-10-18T10:46:08.305Z,101411.09
2022-10-18T10:51:13.204Z,101418.28
2022-10-18T10:56:23.952Z,101408.44
2022-10-18T11:01:32.162Z,101420.81
2022-10-18T11:07:07.614Z,101418.13
2022-10-18T11:12:23.427Z,101408.53
2022-10-18T11:17:34.999Z,101412.06
2022-10-18T11:22:43.202Z,101418.13
2022-10-18T11:27:54.102Z,101422.50
2022-10-18T11:33:07.694Z,101415.47
2022-10-18T11:38:30.476Z,101417.25
2022-10-18T11:44:00.565Z,101428.53
2022-10-18T11:49:19.992Z,101420.69
2022-10-18T11:54:42.926Z,101416.41
2022-10-18T11:59:57.688Z,101428.53
2022-10-18T12:05:23.691Z,101424.19
2022-10-18T12:10:44.189Z,101443.66
2022-10-18T12:15:54.841Z,101434.97
2022-10-18T12:21:01.574Z,101440.19
2022-10-18T12:26:08.092Z,101441.94
2022-10-18T12:31:21.489Z,101439.47
2022-10-18T12:36:48.680Z,101444.56
2022-10-18T12:41:56.456Z,101448.31
2022-10-18T12:47:02.124Z,101455.25
2022-10-18T12:52:19.576Z,101453.31
2022-10-18T12:57:24.644Z,101464.00
2022-10-18T13:02:32.255Z,101465.72
2022-10-18T13:07:41.919Z,101465.69
2022-10-18T13:13:24.467Z,101475.38
2022-10-18T13:18:45.651Z,101478.06
2022-10-18T13:24:16.327Z,101484.09
2022-10-18T13:29:38.101Z,101486.78
2022-10-18T13:34:42.022Z,101501.03
2022-10-18T13:39:47.430Z,101492.47
2022-10-18T13:44:50.988Z,101502.22
2022-10-18T13:50:28.588Z,101496.16
2022-10-18T13:55:49.801Z,101500.47
2022-10-18T14:01:06.942Z,101507.53
2022-10-18T14:06:13.124Z,101505.16
2022-10-18T14:11:28.026Z,101493.78
2022-10-18T14:16:38.320Z,101487.97
2022-10-18T14:21:49.924Z,101496.78
2022-10-18T14:27:17.082Z,101507.25
2022-10-18T14:32:26.031Z,101517.69
2022-10-18T14:37:32.714Z,101516.91
2022-10-18T14:42:49.851Z,101519.47
2022-10-18T14:47:53.434Z,101530.31
2022-10-18T14:52:57.165Z,101525.97
2022-10-18T14:58:03.805Z,101540.81
2022-10-18T15:03:12.132Z,101547.91
2022-10-18T15:08:16.787Z,101550.09
2022-10-18T15:13:22.134Z,101556.00
2022-10-18T15:18:27.926Z,101563.50
2022-10-18T15:23:31.585Z,101562.72
2022-10-18T15:28:39.639Z,101573.88
2022-10-18T15:33:43.261Z,101579.69
2022-10-18T15:38:49.897Z,101585.91
2022-10-18T15:44:11.549Z,101590.59
2022-10-18T15:49:56.212Z,101599.06
2022-10-18T15:55:01.036Z,101605.81
2022-10-18T16:00:08.904Z,101619.88
2022-10-18T16:05:16.283Z,101616.22
2022-10-18T16:10:20.023Z,101621.81
2022-10-18T16:15:25.563Z,101633.19
2022-10-18T16:20:29.231Z,101631.31
2022-10-18T16:25:32.761Z,101641.41
2022-10-18T16:30:38.073Z,101634.50
2022-10-18T16:35:41.618Z,101634.06
2022-10-18T16:40:45.194Z,101633.50
2022-10-18T16:45:52.600Z,101634.94
2022-10-18T16:50:57.299Z,101632.94
2022-10-18T16:56:02.828Z,101637.34
2022-10-18T17:01:08.985Z,101638.28
2022-10-18T17:06:16.879Z,101627.66
2022-10-18T17:11:21.682Z,101625.09
2022-10-18T17:21:38.376Z,101623.28
2022-10-18T17:26:41.949Z,101626.88
2022-10-18T17:31:47.154Z,101631.59
2022-10-18T17:36:50.685Z,101625.78
2022-10-18T17:41:54.222Z,101620.69
2022-10-18T17:46:59.382Z,101628.53
2022-10-18T17:52:06.164Z,101622.47
2022-10-18T17:57:10.726Z,101615.50
2022-10-18T18:02:15.978Z,101613.78
2022-10-18T18:07:18.779Z,101617.84
2022-10-18T18:12:22.346Z,101613.47
2022-10-18T18:17:34.097Z,101607.97
2022-10-18T18:22:43.752Z,101601.22
2022-10-18T18:27:47.501Z,101593.63
2022-10-18T18:32:52.720Z,101590.50
2022-10-18T18:37:56.307Z,101589.94
2022-10-18T18:43:07.133Z,101594.78
2022-10-18T18:48:24.238Z,101590.13
2022-10-18T18:53:29.532Z,101585.53
2022-10-18T18:58:34.662Z,101575.34
2022-10-18T19:03:39.578Z,101561.88
2022-10-18T19:08:43.467Z,101554.50
2022-10-18T19:13:47.387Z,101547.69
2022-10-18T19:19:01.354Z,101542.59
2022-10-18T19:24:05.914Z,101533.34
2022-10-18T19:29:13.097Z,101531.91
2022-10-18T19:34:19.219Z,101519.25
2022-10-18T19:39:24.570Z,101513.47
2022-10-18T19:44:31.615Z,101504.41
2022-10-18T19:49:36.850Z,101495.28
2022-10-18T19:54:40.463Z,101502.00
2022-10-18T19:59:43.991Z,101485.00
2022-10-18T20:04:49.147Z,101475.94
2022-10-18T20:09:52.649Z,101481.81
2022-10-18T20:14:56.198Z,101472.78
2022-10-18T20:20:01.399Z,101471.59
2022-10-18T20:25:05.414Z,101464.81
2022-10-18T20:30:11.390Z,101459.94
2022-10-18T20:35:17.475Z,101452.97
2022-10-18T20:40:21.004Z,101452.75
2022-10-18T20:45:25.071Z,101447.66
2022-10-18T20:50:30.227Z,101445.44
2022-10-18T20:55:33.792Z,101442.00
2022-10-18T21:00:37.450Z,101443.47
2022-10-18T21:05:47.404Z,101428.63
2022-10-18T21:10:53.398Z,101431.19
2022-10-18T21:15:57.603Z,101422.41
2022-10-18T21:26:22.171Z,101411.25
2022-10-18T21:31:27.254Z,101411.50
2022-10-18T21:36:35.151Z,101403.00
2022-10-18T21:41:38.721Z,101402.91
2022-10-18T21:46:42.874Z,101395.94
2022-10-18T21:51:48.033Z,101391.84
2022-10-18T21:56:51.588Z,101394.31
2022-10-18T22:01:55.137Z,101384.63
2022-10-18T22:07:00.302Z,101383.78
2022-10-18T22:12:03.884Z,101374.16
2022-10-18T22:17:07.450Z,101377.59
2022-10-18T22:22:12.610Z,101364.84
2022-10-18T22:27:16.189Z,101355.06
2022-10-18T22:32:19.754Z,101366.84
2022-10-18T22:37:24.967Z,101366.97
2022-10-18T22:42:28.584Z,101356.25
2022-10-18T22:47:33.082Z,101364.41
2022-10-18T22:52:38.445Z,101346.88
2022-10-18T22:57:41.995Z,101346.16
2022-10-18T23:02:45.523Z,101332.56
2022-10-18T23:07:51.073Z,101334.97
2022-10-18T23:12:54.646Z,101335.47
2022-10-18T23:17:59.115Z,101337.34
2022-10-18T23:23:04.252Z,101334.34
2022-10-18T23:28:07.824Z,101333.47
2022-10-18T23:33:11.365Z,101329.69
2022-10-18T23:38:16.541Z,101328.66
2022-10-18T23:43:20.061Z,101321.00
2022-10-18T23:48:23.614Z,101321.19
2022-10-18T23:53:53.181Z,101323.31
2022-10-18T23:58:57.667Z,101321.78
